Hovedside
METAR-TAF:

METAR-TAF

Lufthavner :

Karup lufthavn

Karup, Danmark

breddegrad: 56-18N, lengdegrad: 009-07E, høyde over havet: 52 m

Gjeldene værobservasjon

Denne rapporten ble laget for 11 minutter siden, klokken 19:42 UTC
Vind 10 kt fra Sør, skiftende mellom Sør og Vest-sørvest
Temperatur 19°C
Luftfuktighet 88%
Trykk 1011 hPa
Sikt 10 km eller mer

METAR: EKKA 161942Z AUTO 19010KT 170V250 9999NDV BKN014/// 19/17 Q1011

Tid: 21:53 (19:53 UTC)

Varsel

Denne rapporten ble laget for 2 timer og 32 minutter siden, klokken 17:21 UTC
Varsel gyldig fra 16. klokken 18 UTC til 17. klokken 18 UTC
Vind 12 kt fra Sør
Sikt 10 km eller mer
Brutte skyer i en høyde av 3000 ft
Midlertidig
fra 16. klokken 18 UTC til 17. klokken 06 UTC
Sikt: 4000 m
Brutte skyer i en høyde av 800 ft
lett regn
Blir
fra 17. klokken 06 UTC til 17. klokken 09 UTC
Vind 8 kt fra Vest

TAF: EKKA 161721Z 1618/1718 19012KT 9999 BKN030 TEMPO 1618/1706 4000 -RA BKN008 BECMG 1706/1709 27008KT

Værobservasjoner og værvarsel for over 4000 flyplasser (METAR- og TAF-rapporter).

Tilgjengelige stasjoner er representert av de røde og gule prikkene på kartet.

Hold musepekeren over prikken for å se navnet på stasjonen.

Klikk så for å se værobservasjoner og -varsler.

For å forandre kartet kan du klikke på den grønne knappen med svart kryss for å zoome inn, på den grønne knappen med strek for å zoome ut, eller på de grønne pilene for å se tilstøtende kart.


METAR-TAF: